createdAt,value
2019-01-16T00:01:57.437Z,6.79
2019-01-16T00:04:41.623Z,6.81
2019-01-16T00:07:31.025Z,6.82
2019-01-16T00:10:24.692Z,6.82
2019-01-16T00:13:09.559Z,6.81
2019-01-16T00:15:47.048Z,6.80
2019-01-16T00:18:25.736Z,6.82
2019-01-16T00:21:09.375Z,6.79
2019-01-16T00:23:52.431Z,6.77
2019-01-16T00:26:30.855Z,6.75
2019-01-16T00:29:14.174Z,6.71
2019-01-16T00:31:57.926Z,6.68
2019-01-16T00:34:45.033Z,6.66
2019-01-16T00:37:39.520Z,6.62
2019-01-16T00:40:38.518Z,6.59
2019-01-16T00:43:39.876Z,6.58
2019-01-16T00:46:19.357Z,6.58
2019-01-16T00:49:16.668Z,6.58
2019-01-16T00:52:07.110Z,6.58
2019-01-16T00:55:01.551Z,6.57
2019-01-16T00:57:41.154Z,6.57
2019-01-16T01:00:22.868Z,6.54
2019-01-16T01:03:16.558Z,6.52
2019-01-16T01:06:07.949Z,6.50
2019-01-16T01:09:01.649Z,6.47
2019-01-16T01:11:40.842Z,6.42
2019-01-16T01:14:38.205Z,6.38
2019-01-16T01:17:29.965Z,6.37
2019-01-16T01:20:10.977Z,6.35
2019-01-16T01:22:57.208Z,6.34
2019-01-16T01:25:46.199Z,6.36
2019-01-16T01:28:27.565Z,6.38
2019-01-16T01:31:12.211Z,6.39
2019-01-16T01:33:50.904Z,6.41
2019-01-16T01:36:44.842Z,6.41
2019-01-16T01:39:50.968Z,6.41
2019-01-16T01:42:44.271Z,6.40
2019-01-16T01:45:23.826Z,6.39
2019-01-16T01:48:03.556Z,6.37
2019-01-16T01:50:48.596Z,6.31
2019-01-16T01:53:34.105Z,6.24
2019-01-16T01:56:29.630Z,6.18
2019-01-16T01:59:15.830Z,6.14
2019-01-16T02:01:54.223Z,6.13
2019-01-16T02:04:46.678Z,6.11
2019-01-16T02:07:40.141Z,6.10
2019-01-16T02:10:25.928Z,6.10
2019-01-16T02:13:18.477Z,6.07
2019-01-16T02:16:04.572Z,6.07
2019-01-16T02:19:01.110Z,6.07
2019-01-16T02:21:51.300Z,6.06
2019-01-16T02:24:49.685Z,6.07
2019-01-16T02:27:58.321Z,6.08
2019-01-16T02:30:56.481Z,6.11
2019-01-16T02:33:43.196Z,6.10
2019-01-16T02:36:37.067Z,6.12
2019-01-16T02:39:34.223Z,6.14
2019-01-16T02:42:26.664Z,6.15
2019-01-16T02:45:17.108Z,6.18
2019-01-16T02:48:02.506Z,6.19
2019-01-16T02:50:50.271Z,6.22
2019-01-16T02:53:28.746Z,6.24
2019-01-16T02:56:07.302Z,6.26
2019-01-16T02:58:48.651Z,6.29
2019-01-16T03:01:34.710Z,6.28
2019-01-16T03:04:29.072Z,6.29
2019-01-16T03:07:13.321Z,6.30
2019-01-16T03:09:57.493Z,6.29
2019-01-16T03:12:36.411Z,6.28
2019-01-16T03:15:15.627Z,6.28
2019-01-16T03:18:08.684Z,6.26
2019-01-16T03:20:58.727Z,6.23
2019-01-16T03:23:37.258Z,6.19
2019-01-16T03:26:23.002Z,6.17
2019-01-16T03:29:01.387Z,6.13
2019-01-16T03:31:55.883Z,6.09
2019-01-16T03:34:40.334Z,6.05
2019-01-16T03:37:32.784Z,6.03
2019-01-16T03:40:23.583Z,6.02
2019-01-16T03:43:07.184Z,5.99
2019-01-16T03:45:49.633Z,5.95
2019-01-16T03:48:43.162Z,5.92
2019-01-16T03:51:39.086Z,5.90
2019-01-16T03:54:36.172Z,5.88
2019-01-16T03:57:14.968Z,5.87
2019-01-16T04:00:07.521Z,5.86
2019-01-16T04:02:46.103Z,5.85
2019-01-16T04:05:39.525Z,5.83
2019-01-16T04:08:37.412Z,5.84
2019-01-16T04:11:26.425Z,5.83
2019-01-16T04:14:14.604Z,5.83
2019-01-16T04:17:09.091Z,5.84
2019-01-16T04:19:51.704Z,5.84
2019-01-16T04:22:39.552Z,5.84
2019-01-16T04:25:18.231Z,5.87
2019-01-16T04:28:10.601Z,5.87
2019-01-16T04:30:56.898Z,5.89
2019-01-16T04:33:36.112Z,5.91
2019-01-16T04:36:24.404Z,5.95
2019-01-16T04:39:08.429Z,5.98
2019-01-16T04:42:01.081Z,6.01
2019-01-16T04:44:51.386Z,6.08
2019-01-16T04:47:42.762Z,6.10
2019-01-16T04:50:32.063Z,6.12
2019-01-16T04:53:10.492Z,6.14
2019-01-16T04:56:03.219Z,6.12
2019-01-16T04:58:53.790Z,6.13
2019-01-16T05:01:32.307Z,6.14
2019-01-16T05:04:21.297Z,6.16
2019-01-16T05:07:13.740Z,6.18
2019-01-16T05:10:06.594Z,6.17
2019-01-16T05:12:46.025Z,6.21
2019-01-16T05:15:36.288Z,6.21
2019-01-16T05:18:27.598Z,6.25
2019-01-16T05:21:11.381Z,6.28
2019-01-16T05:24:04.031Z,6.30
2019-01-16T05:26:52.579Z,6.33
2019-01-16T05:29:47.490Z,6.36
2019-01-16T05:32:36.853Z,6.39
2019-01-16T05:35:15.239Z,6.41
2019-01-16T05:37:54.540Z,6.40
2019-01-16T05:40:48.784Z,6.39
2019-01-16T05:43:55.272Z,6.39
2019-01-16T05:46:38.389Z,6.35
2019-01-16T05:49:17.378Z,6.33
2019-01-16T05:52:08.117Z,6.31
2019-01-16T05:54:46.553Z,6.31
2019-01-16T05:57:35.859Z,6.32
2019-01-16T06:00:32.457Z,6.32
2019-01-16T06:03:30.923Z,6.32
2019-01-16T06:06:21.309Z,6.32
2019-01-16T06:09:17.660Z,6.36
2019-01-16T06:12:10.911Z,6.37
2019-01-16T06:15:05.404Z,6.40
2019-01-16T06:17:55.516Z,6.43
2019-01-16T06:20:43.804Z,6.46
2019-01-16T06:23:38.230Z,6.46
2019-01-16T06:26:19.500Z,6.50
2019-01-16T06:29:03.667Z,6.53
2019-01-16T06:31:51.715Z,6.54
2019-01-16T06:34:34.725Z,6.53
2019-01-16T06:37:28.904Z,6.53
2019-01-16T06:40:24.419Z,6.52
2019-01-16T06:43:03.015Z,6.51
2019-01-16T06:45:49.850Z,6.51
2019-01-16T06:48:40.249Z,6.50
2019-01-16T06:51:25.844Z,6.49
2019-01-16T06:54:08.312Z,6.49
2019-01-16T06:57:03.240Z,6.51
2019-01-16T06:59:56.502Z,6.52
2019-01-16T07:02:52.427Z,6.54
2019-01-16T07:05:46.918Z,6.52
2019-01-16T07:08:31.580Z,6.50
2019-01-16T07:11:17.672Z,6.49
2019-01-16T07:14:08.032Z,6.48
2019-01-16T07:17:01.461Z,6.46
2019-01-16T07:19:57.460Z,6.45
2019-01-16T07:22:53.793Z,6.44
2019-01-16T07:25:46.853Z,6.44
2019-01-16T07:28:34.252Z,6.43
2019-01-16T07:31:22.064Z,6.41
2019-01-16T07:34:02.117Z,6.40
2019-01-16T07:36:40.961Z,6.40
2019-01-16T07:39:42.653Z,6.40
2019-01-16T07:42:46.834Z,6.41
2019-01-16T07:45:26.922Z,6.39
2019-01-16T07:48:10.045Z,6.38
2019-01-16T07:51:04.231Z,6.38
2019-01-16T07:53:44.350Z,6.36
2019-01-16T07:56:23.107Z,6.36
2019-01-16T07:59:21.707Z,6.34
2019-01-16T08:02:09.288Z,6.34
2019-01-16T08:04:54.501Z,6.33
2019-01-16T08:07:41.978Z,6.34
2019-01-16T08:10:36.146Z,6.32
2019-01-16T08:13:25.589Z,6.32
2019-01-16T08:16:05.979Z,6.31
2019-01-16T08:18:53.322Z,6.31
2019-01-16T08:21:41.503Z,6.29
2019-01-16T08:24:20.250Z,6.29
2019-01-16T08:27:15.126Z,6.28
2019-01-16T08:30:05.328Z,6.27
2019-01-16T08:33:02.282Z,6.25
2019-01-16T08:35:54.315Z,6.26
2019-01-16T08:38:45.320Z,6.27
2019-01-16T08:41:33.250Z,6.26
2019-01-16T08:44:16.071Z,6.26
2019-01-16T08:47:13.629Z,6.27
2019-01-16T08:50:12.626Z,6.28
2019-01-16T08:53:19.614Z,6.30
2019-01-16T08:56:12.054Z,6.28
2019-01-16T08:58:52.177Z,6.29
2019-01-16T09:01:37.604Z,6.29
2019-01-16T09:04:32.999Z,6.32
2019-01-16T09:07:31.792Z,6.33
2019-01-16T09:10:29.353Z,6.35
2019-01-16T09:13:18.518Z,6.36
2019-01-16T09:15:56.872Z,6.38
2019-01-16T09:18:40.432Z,6.38
2019-01-16T09:21:36.323Z,6.38
2019-01-16T09:24:41.123Z,6.38
2019-01-16T09:27:52.204Z,6.37
2019-01-16T09:31:01.850Z,6.36
2019-01-16T09:33:50.445Z,6.37
2019-01-16T09:36:45.301Z,6.34
2019-01-16T09:39:45.702Z,6.33
2019-01-16T09:42:29.987Z,6.32
2019-01-16T09:45:13.837Z,6.31
2019-01-16T09:47:53.553Z,6.29
2019-01-16T09:50:48.045Z,6.30
2019-01-16T09:53:44.399Z,6.30
2019-01-16T09:56:37.866Z,6.26
2019-01-16T09:59:24.984Z,6.27
2019-01-16T10:02:09.678Z,6.28
2019-01-16T10:04:58.803Z,6.25
2019-01-16T10:07:43.835Z,6.22
2019-01-16T10:10:34.656Z,6.19
2019-01-16T10:13:16.340Z,6.18
2019-01-16T10:16:11.765Z,6.18
2019-01-16T10:19:14.987Z,6.18
2019-01-16T10:21:54.902Z,6.16
2019-01-16T10:24:41.120Z,6.17
2019-01-16T10:27:26.799Z,6.14
2019-01-16T10:30:19.771Z,6.12
2019-01-16T10:33:06.213Z,6.09
2019-01-16T10:36:00.560Z,6.08
2019-01-16T10:38:52.680Z,6.08
2019-01-16T10:41:48.589Z,6.10
2019-01-16T10:44:32.564Z,6.09
2019-01-16T10:47:16.289Z,6.11
2019-01-16T10:50:11.923Z,6.14
2019-01-16T10:53:07.643Z,6.17
2019-01-16T10:56:02.814Z,6.19
2019-01-16T10:58:59.493Z,6.18
2019-01-16T11:01:46.172Z,6.18
2019-01-16T11:04:43.767Z,6.18
2019-01-16T11:07:37.942Z,6.17
2019-01-16T11:10:18.983Z,6.20
2019-01-16T11:12:58.129Z,6.19
2019-01-16T11:15:47.616Z,6.18
2019-01-16T11:18:26.432Z,6.16
2019-01-16T11:21:11.195Z,6.18
2019-01-16T11:24:00.113Z,6.18
2019-01-16T11:26:45.352Z,6.18
2019-01-16T11:29:41.686Z,6.19
2019-01-16T11:32:36.587Z,6.15
2019-01-16T11:35:24.725Z,6.16
2019-01-16T11:38:25.776Z,6.18
2019-01-16T11:41:10.027Z,6.16
2019-01-16T11:43:58.259Z,6.17
2019-01-16T11:46:43.237Z,6.22
2019-01-16T11:49:36.777Z,6.21
2019-01-16T11:52:15.808Z,6.20
2019-01-16T11:54:54.319Z,6.16
2019-01-16T11:57:36.556Z,6.16
2019-01-16T12:00:27.039Z,6.12
2019-01-16T12:03:13.258Z,6.10
2019-01-16T12:06:07.948Z,6.09
2019-01-16T12:08:59.730Z,6.07
2019-01-16T12:11:55.589Z,6.06
2019-01-16T12:14:41.388Z,6.05
2019-01-16T12:17:19.894Z,6.03
2019-01-16T12:19:58.814Z,6.02
2019-01-16T12:22:54.546Z,6.04
2019-01-16T12:25:52.113Z,6.03
2019-01-16T12:28:37.672Z,6.02
2019-01-16T12:31:17.955Z,6.01
2019-01-16T12:33:57.999Z,6.00
2019-01-16T12:36:55.539Z,6.01
2019-01-16T12:39:35.309Z,5.98
2019-01-16T12:42:26.565Z,5.95
2019-01-16T12:45:16.163Z,5.96
2019-01-16T12:47:56.157Z,5.94
2019-01-16T12:50:47.370Z,5.93
2019-01-16T12:53:37.355Z,5.93
2019-01-16T12:56:33.904Z,5.92
2019-01-16T12:59:16.160Z,5.92
2019-01-16T13:02:12.443Z,5.91
2019-01-16T13:04:59.962Z,5.91
2019-01-16T13:07:56.367Z,5.91
2019-01-16T13:11:01.843Z,5.93
2019-01-16T13:14:04.276Z,5.92
2019-01-16T13:17:20.419Z,5.94
2019-01-16T13:20:24.105Z,5.99
2019-01-16T13:23:11.248Z,5.97
2019-01-16T13:26:08.608Z,5.97
2019-01-16T13:29:14.776Z,5.99
2019-01-16T13:31:56.624Z,5.99
2019-01-16T13:34:37.321Z,6.00
2019-01-16T13:37:27.499Z,6.00
2019-01-16T13:40:20.576Z,6.03
2019-01-16T13:43:32.904Z,6.04
2019-01-16T13:46:13.658Z,6.02
2019-01-16T13:49:00.822Z,6.00
2019-01-16T13:51:50.351Z,6.00
2019-01-16T13:54:44.433Z,5.99
2019-01-16T13:57:45.277Z,5.99
2019-01-16T14:00:41.616Z,5.98
2019-01-16T14:03:20.777Z,6.00
2019-01-16T14:06:13.384Z,6.01
2019-01-16T14:09:02.634Z,6.02
2019-01-16T14:11:44.359Z,6.03
2019-01-16T14:14:29.263Z,6.04
2019-01-16T14:17:34.558Z,6.06
2019-01-16T14:20:25.501Z,6.08
2019-01-16T14:23:18.213Z,6.09
2019-01-16T14:26:04.107Z,6.11
2019-01-16T14:28:58.183Z,6.14
2019-01-16T14:31:39.283Z,6.17
2019-01-16T14:34:27.460Z,6.17
2019-01-16T14:37:22.409Z,6.16
2019-01-16T14:40:01.548Z,6.15
2019-01-16T14:42:40.860Z,6.14
2019-01-16T14:45:38.523Z,6.14
2019-01-16T14:48:45.295Z,6.12
2019-01-16T14:51:27.021Z,6.10
2019-01-16T14:54:06.940Z,6.09
2019-01-16T14:56:46.193Z,6.07
2019-01-16T14:59:39.101Z,6.06
2019-01-16T15:02:28.087Z,6.07
2019-01-16T15:05:07.221Z,6.08
2019-01-16T15:07:53.544Z,6.10
2019-01-16T15:10:46.804Z,6.12
2019-01-16T15:13:36.801Z,6.12
2019-01-16T15:16:15.680Z,6.12
2019-01-16T15:19:01.286Z,6.12
2019-01-16T15:21:54.871Z,6.13
2019-01-16T15:24:42.293Z,6.14
2019-01-16T15:27:22.250Z,6.13
2019-01-16T15:30:01.156Z,6.13
2019-01-16T15:33:01.297Z,6.13
2019-01-16T15:35:58.834Z,6.14
2019-01-16T15:38:45.566Z,6.13
2019-01-16T15:41:29.533Z,6.12
2019-01-16T15:44:19.596Z,6.10
2019-01-16T15:47:07.484Z,6.08
2019-01-16T15:50:22.719Z,6.05
2019-01-16T15:53:16.503Z,5.99
2019-01-16T15:56:13.646Z,5.95
2019-01-16T15:59:26.121Z,5.91
2019-01-16T16:02:29.510Z,5.86
2019-01-16T16:05:31.420Z,5.84
2019-01-16T16:08:13.617Z,5.82
2019-01-16T16:11:08.897Z,5.83
2019-01-16T16:13:56.992Z,5.83
2019-01-16T16:16:49.077Z,5.80
2019-01-16T16:19:38.881Z,5.75
2019-01-16T16:22:25.976Z,5.72
2019-01-16T16:25:06.424Z,5.66
2019-01-16T16:27:47.359Z,5.60
2019-01-16T16:30:43.061Z,5.53
2019-01-16T16:33:53.743Z,5.48
2019-01-16T16:36:44.462Z,5.42
2019-01-16T16:39:37.483Z,5.38
2019-01-16T16:42:36.181Z,5.41
2019-01-16T16:45:38.342Z,5.45
2019-01-16T16:48:16.950Z,5.46
2019-01-16T16:51:05.913Z,5.46
2019-01-16T16:53:54.492Z,5.45
2019-01-16T16:56:34.309Z,5.45
2019-01-16T16:59:21.759Z,5.46
2019-01-16T17:02:14.405Z,5.48
2019-01-16T17:05:13.801Z,5.49
2019-01-16T17:08:09.765Z,5.48
2019-01-16T17:11:05.358Z,5.47
2019-01-16T17:14:11.008Z,5.47
2019-01-16T17:17:09.771Z,5.51
2019-01-16T17:20:06.956Z,5.51
2019-01-16T17:23:05.133Z,5.54
2019-01-16T17:25:59.626Z,5.55
2019-01-16T17:28:39.550Z,5.55
2019-01-16T17:31:21.161Z,5.52
2019-01-16T17:34:15.405Z,5.50
2019-01-16T17:37:05.802Z,5.47
2019-01-16T17:39:49.251Z,5.45
2019-01-16T17:42:49.707Z,5.39
2019-01-16T17:45:33.736Z,5.36
2019-01-16T17:48:33.336Z,5.33
2019-01-16T17:51:29.818Z,5.37
2019-01-16T17:54:28.496Z,5.37
2019-01-16T17:57:25.029Z,5.37
2019-01-16T18:00:19.015Z,5.42
2019-01-16T18:03:07.643Z,5.47
2019-01-16T18:05:50.535Z,5.48
2019-01-16T18:08:59.514Z,5.49
2019-01-16T18:11:39.464Z,5.52
2019-01-16T18:14:32.518Z,5.55
2019-01-16T18:17:12.365Z,5.54
2019-01-16T18:20:05.323Z,5.52
2019-01-16T18:22:54.961Z,5.45
2019-01-16T18:25:39.967Z,5.39
2019-01-16T18:28:28.491Z,5.34
2019-01-16T18:31:06.989Z,5.30
2019-01-16T18:34:10.025Z,5.32
2019-01-16T18:37:04.931Z,5.34
2019-01-16T18:40:00.031Z,5.40
2019-01-16T18:42:38.558Z,5.42
2019-01-16T18:45:21.240Z,5.44
2019-01-16T18:48:00.152Z,5.44
2019-01-16T18:50:56.830Z,5.45
2019-01-16T18:54:00.559Z,5.43
2019-01-16T18:56:47.864Z,5.43
2019-01-16T18:59:45.834Z,5.43
2019-01-16T19:02:37.154Z,5.41
2019-01-16T19:05:18.321Z,5.39
2019-01-16T19:08:10.510Z,5.39
2019-01-16T19:10:49.210Z,5.37
2019-01-16T19:13:46.751Z,5.39
2019-01-16T19:16:53.642Z,5.43
2019-01-16T19:19:52.940Z,5.45
2019-01-16T19:22:38.122Z,5.52
2019-01-16T19:25:35.671Z,5.59
2019-01-16T19:28:47.444Z,5.65
2019-01-16T19:31:36.844Z,5.69
2019-01-16T19:34:23.913Z,5.76
2019-01-16T19:37:18.140Z,5.80
2019-01-16T19:40:14.883Z,5.81
2019-01-16T19:43:14.582Z,5.83
2019-01-16T19:46:03.256Z,5.85
2019-01-16T19:48:59.800Z,5.84
2019-01-16T19:51:55.403Z,5.83
2019-01-16T19:54:35.515Z,5.80
2019-01-16T19:57:30.365Z,5.77
2019-01-16T20:00:38.379Z,5.74
2019-01-16T20:03:37.490Z,5.72
2019-01-16T20:06:28.772Z,5.69
2019-01-16T20:09:13.524Z,5.69
2019-01-16T20:12:12.036Z,5.69
2019-01-16T20:14:59.359Z,5.69
2019-01-16T20:17:47.038Z,5.69
2019-01-16T20:20:43.199Z,5.70
2019-01-16T20:23:27.064Z,5.69
2019-01-16T20:26:07.716Z,5.72
2019-01-16T20:29:03.761Z,5.72
2019-01-16T20:32:04.183Z,5.97
2019-01-16T20:34:57.662Z,5.93
2019-01-16T20:37:56.445Z,5.81
2019-01-16T20:40:50.531Z,5.75
2019-01-16T20:43:50.041Z,5.72
2019-01-16T20:46:30.442Z,5.70
2019-01-16T20:49:25.200Z,5.68
2019-01-16T20:52:38.322Z,5.69
2019-01-16T20:55:25.648Z,5.68
2019-01-16T20:58:05.986Z,5.68
2019-01-16T21:00:51.691Z,5.67
2019-01-16T21:03:46.555Z,5.68
2019-01-16T21:06:31.385Z,5.69
2019-01-16T21:09:13.327Z,5.71
2019-01-16T21:12:07.333Z,5.72
2019-01-16T21:14:51.071Z,5.74
2019-01-16T21:17:32.559Z,5.74
2019-01-16T21:20:15.317Z,5.74
2019-01-16T21:23:05.241Z,5.77
2019-01-16T21:25:56.089Z,5.77
2019-01-16T21:28:51.586Z,5.76
2019-01-16T21:32:00.714Z,5.76
2019-01-16T21:34:57.047Z,5.74
2019-01-16T21:37:58.914Z,5.75
2019-01-16T21:40:55.858Z,5.76
2019-01-16T21:44:05.302Z,5.78
2019-01-16T21:46:44.115Z,5.78
2019-01-16T21:49:22.346Z,5.79
2019-01-16T21:52:07.815Z,5.79
2019-01-16T21:54:51.861Z,5.80
2019-01-16T21:57:33.652Z,5.80
2019-01-16T22:00:20.655Z,5.80
2019-01-16T22:03:19.364Z,5.79
2019-01-16T22:06:09.820Z,5.80
2019-01-16T22:08:59.744Z,5.83
2019-01-16T22:11:39.336Z,5.83
2019-01-16T22:14:26.585Z,5.83
2019-01-16T22:17:05.517Z,5.82
2019-01-16T22:19:49.169Z,5.81
2019-01-16T22:22:39.054Z,5.84
2019-01-16T22:25:18.639Z,5.85
2019-01-16T22:28:01.210Z,5.85
2019-01-16T22:30:42.620Z,5.84
2019-01-16T22:33:36.874Z,5.87
2019-01-16T22:36:33.006Z,5.86
2019-01-16T22:39:27.700Z,5.87
2019-01-16T22:42:13.386Z,5.87
2019-01-16T22:44:58.864Z,5.88
2019-01-16T22:47:53.558Z,5.87
2019-01-16T22:50:50.919Z,5.88
2019-01-16T22:53:43.443Z,5.87
2019-01-16T22:56:36.651Z,5.88
2019-01-16T22:59:23.333Z,5.87
2019-01-16T23:02:17.821Z,5.88
2019-01-16T23:05:22.562Z,5.86
2019-01-16T23:08:08.415Z,5.82
2019-01-16T23:10:53.726Z,5.74
2019-01-16T23:13:47.799Z,5.68
2019-01-16T23:16:38.183Z,5.64
2019-01-16T23:19:33.511Z,5.62
2019-01-16T23:22:26.560Z,5.64
2019-01-16T23:25:28.104Z,5.64
2019-01-16T23:28:14.342Z,5.62
2019-01-16T23:31:15.157Z,5.59
2019-01-16T23:34:00.840Z,5.58
2019-01-16T23:36:59.035Z,5.52
2019-01-16T23:40:08.526Z,5.42
2019-01-16T23:43:15.854Z,5.36
2019-01-16T23:46:25.090Z,5.29
2019-01-16T23:49:32.279Z,5.21
2019-01-16T23:52:23.275Z,5.13
2019-01-16T23:55:14.385Z,5.05
2019-01-16T23:58:00.747Z,5.00
